To NAV CANADA Home Page Login to a new session Search on AWWS site Feedback and Comments Disclaimer Vers la page française équivalente Tips FAQ What's new on the site To the Forecasts and Observations / NOTAM section To "File a Flight Plan" website Publications and other links Update of the User's profile FIC Telephone Numbers My Weather Data Folder Route Weather Data Regional Weather Data Local Weather Data To the Forecasts and Observations / NOTAM section
Request Generated 02/23/2017 at 20:47:14 UTC . Weather information available at that time is displayed.

METAR/TAF

HAMILTON/ON    

METAR CYHM 232000Z 27014G26KT 15SM FEW040 FEW250 18/07 A2970 RMK
CU1CI1 CU TR CI TR SLP059 DENSITY ALT 1500FT=
METAR CYHM 231900Z 27015G25KT 15SM FEW032 SCT040 SCT240 17/08 A2968
RMK CU2SC1CI1 SLP051 DENSITY ALT 1400FT=
METAR CYHM 231800Z 24020KT 15SM FEW022 BKN027 BKN040 16/11 A2965 RMK
CU2SC3SC1 SLP044 DENSITY ALT 1400FT=

TAF CYHM 231741Z 2318/2418 24017G27KT P6SM BKN025 TEMPO 2318/2320
BKN015
FM232000 25012G22KT P6SM SCT020 TEMPO 2320/2322 BKN020
BECMG 2322/2324 31008KT
FM240200 05005KT P6SM FEW025 BKN180
FM240700 05010G20KT 5SM -SHRA BR BKN007 OVC025 TEMPO 2407/2410
P6SM -SHRA SCT007 OVC025
FM241000 05010G20KT 11/2SM -SHRA BR OVC004 PROB30 2412/2417 1SM
TSRA BR OVC004CB
FM241700 06007KT 1/2SM FG VV002
RMK NXT FCST BY 240000Z=
Your time UTC time
Weather data provided by Environment Canada and NAV CANADA